Time;durP1;ratioP1;P1;durP2;ratioP2;P2;SDS_P1;SDS_P2;PMS_P1;PMS_P2;Temp;Humidity;BMP_temperature;BMP_pressure;BME280_temperature;BME280_humidity;BME280_pressure;Samples;Min_cycle;Max_cycle;Signal;HPM_P1;HPM_P2
2023/12/17 00:00:21;;;;;;;;;72.67;56.33;;;;;;;;5067321;28;8879;-80
2023/12/17 00:02:48;;;;;;;;;56.33;49.00;;;;;;;;5066524;28;8856;-80
2023/12/17 00:05:16;;;;;;;;;60.00;49.33;;;;;;;;5068122;28;8874;-80
2023/12/17 00:07:43;;;;;;;;;62.00;52.00;;;;;;;;5059944;28;9718;-81
2023/12/17 00:10:11;;;;;;;;;59.67;49.00;;;;;;;;5066011;28;9651;-81
2023/12/17 00:12:40;;;;;;;;;54.00;44.33;;;;;;;;5063448;28;12407;-80
2023/12/17 00:15:08;;;;;;;;;63.00;50.33;;;;;;;;5064866;28;8959;-79
2023/12/17 00:17:35;;;;;;;;;59.00;48.00;;;;;;;;5068178;28;8978;-81
2023/12/17 00:20:03;;;;;;;;;46.00;42.33;;;;;;;;5066143;28;11539;-79
2023/12/17 00:22:31;;;;;;;;;46.00;40.33;;;;;;;;5062605;28;11553;-80
2023/12/17 00:25:01;;;;;;;;;57.00;46.33;;;;;;;;5073055;28;11653;-80
2023/12/17 00:27:29;;;;;;;;;48.00;40.67;;;;;;;;5075632;28;8890;-81
2023/12/17 00:29:59;;;;;;;;;55.67;45.67;;;;;;;;5073345;28;11560;-81
2023/12/17 00:32:27;;;;;;;;;52.67;44.00;;;;;;;;5064122;28;11509;-83
2023/12/17 00:34:57;;;;;;;;;59.00;46.67;;;;;;;;5065131;28;11541;-80
2023/12/17 00:37:24;;;;;;;;;57.33;43.67;;;;;;;;5065582;28;8944;-79
2023/12/17 00:39:57;;;;;;;;;54.00;44.00;;;;;;;;5067635;28;8899;-80
2023/12/17 00:42:24;;;;;;;;;55.00;46.67;;;;;;;;5072904;28;8852;-82
2023/12/17 00:44:52;;;;;;;;;61.00;49.33;;;;;;;;5069905;28;11597;-82
2023/12/17 00:47:20;;;;;;;;;62.33;52.67;;;;;;;;5067340;28;8864;-82
2023/12/17 00:49:47;;;;;;;;;61.33;50.33;;;;;;;;5074225;28;8856;-83
2023/12/17 00:52:15;;;;;;;;;36.67;33.67;;;;;;;;5062670;28;8858;-83
2023/12/17 00:54:42;;;;;;;;;51.00;41.00;;;;;;;;5058275;28;8893;-82
2023/12/17 00:57:09;;;;;;;;;61.67;49.67;;;;;;;;5066257;28;8836;-82
2023/12/17 00:59:36;;;;;;;;;63.67;53.00;;;;;;;;5056353;28;8862;-81
2023/12/17 01:02:04;;;;;;;;;60.00;48.67;;;;;;;;5066163;28;8796;-80
2023/12/17 01:04:33;;;;;;;;;55.33;45.33;;;;;;;;5061767;28;8875;-81
2023/12/17 01:07:00;;;;;;;;;54.00;44.00;;;;;;;;5067849;28;8843;-82
2023/12/17 01:09:28;;;;;;;;;58.67;50.00;;;;;;;;5059754;28;9604;-82
2023/12/17 01:11:57;;;;;;;;;58.33;49.67;;;;;;;;5069976;28;8953;-82
2023/12/17 01:14:25;;;;;;;;;58.00;45.00;;;;;;;;5070467;28;8973;-83
2023/12/17 01:16:52;;;;;;;;;57.67;47.67;;;;;;;;5067652;28;9611;-81
2023/12/17 01:19:19;;;;;;;;;59.33;47.33;;;;;;;;5070779;28;8986;-84
2023/12/17 01:21:48;;;;;;;;;56.67;49.33;;;;;;;;5068962;28;8939;-83
2023/12/17 01:24:15;;;;;;;;;52.00;43.67;;;;;;;;5069069;28;8916;-83
2023/12/17 01:26:43;;;;;;;;;59.00;49.00;;;;;;;;5068558;28;8920;-83
2023/12/17 01:29:10;;;;;;;;;56.33;44.00;;;;;;;;5068966;28;8860;-81
2023/12/17 01:31:37;;;;;;;;;57.67;47.00;;;;;;;;5068294;28;8801;-83
2023/12/17 01:34:06;;;;;;;;;57.67;48.00;;;;;;;;5070586;28;8953;-81
2023/12/17 01:36:34;;;;;;;;;52.67;44.33;;;;;;;;5069308;28;8860;-80
2023/12/17 01:39:02;;;;;;;;;53.67;43.67;;;;;;;;5071227;28;8849;-81
2023/12/17 01:41:32;;;;;;;;;55.00;47.00;;;;;;;;5068481;28;8983;-81
2023/12/17 01:44:00;;;;;;;;;59.00;47.33;;;;;;;;5069580;28;8853;-80
2023/12/17 01:46:28;;;;;;;;;56.67;45.67;;;;;;;;5071226;28;8875;-78
2023/12/17 01:48:55;;;;;;;;;57.67;47.00;;;;;;;;5079918;28;8848;-76
2023/12/17 01:51:23;;;;;;;;;60.00;47.67;;;;;;;;5076398;28;8872;-83
2023/12/17 01:53:50;;;;;;;;;54.00;45.00;;;;;;;;5070502;28;9692;-83
2023/12/17 01:56:19;;;;;;;;;52.33;42.33;;;;;;;;5070405;28;8852;-82
2023/12/17 01:58:48;;;;;;;;;55.00;47.00;;;;;;;;5067555;28;8877;-83
2023/12/17 02:01:15;;;;;;;;;59.33;47.67;;;;;;;;5051937;28;8781;-82
2023/12/17 02:03:42;;;;;;;;;59.00;46.67;;;;;;;;5066373;28;8859;-83
2023/12/17 02:06:10;;;;;;;;;60.33;50.33;;;;;;;;5068051;28;8888;-81
2023/12/17 02:08:37;;;;;;;;;64.00;53.67;;;;;;;;5069546;28;9600;-81
2023/12/17 02:11:05;;;;;;;;;64.33;52.33;;;;;;;;5070061;28;8844;-81
2023/12/17 02:13:34;;;;;;;;;68.67;54.00;;;;;;;;5070870;28;8972;-81
2023/12/17 02:16:01;;;;;;;;;62.00;51.00;;;;;;;;5073747;28;8875;-81
2023/12/17 02:18:28;;;;;;;;;59.33;48.33;;;;;;;;5056301;28;8848;-81
2023/12/17 02:20:56;;;;;;;;;61.00;49.00;;;;;;;;5070721;28;8955;-81
2023/12/17 02:23:25;;;;;;;;;57.67;46.67;;;;;;;;5064722;28;8874;-82
2023/12/17 02:25:52;;;;;;;;;73.00;55.67;;;;;;;;5059471;28;8907;-79
2023/12/17 02:28:19;;;;;;;;;55.67;44.67;;;;;;;;5065436;28;8844;-81
2023/12/17 02:30:47;;;;;;;;;57.33;48.00;;;;;;;;5054505;28;8775;-80
2023/12/17 02:33:14;;;;;;;;;55.67;45.67;;;;;;;;5066772;28;8933;-83
2023/12/17 02:35:41;;;;;;;;;59.00;49.67;;;;;;;;5063303;28;8851;-83
2023/12/17 02:38:08;;;;;;;;;53.00;41.33;;;;;;;;5062751;28;8876;-83
2023/12/17 02:40:37;;;;;;;;;62.00;49.00;;;;;;;;5062815;28;8889;-84
2023/12/17 02:43:07;;;;;;;;;61.67;49.00;;;;;;;;5064710;28;8863;-80
2023/12/17 02:45:35;;;;;;;;;62.00;49.67;;;;;;;;5053677;28;8862;-80
2023/12/17 02:48:02;;;;;;;;;63.00;49.33;;;;;;;;5064684;28;8877;-80
2023/12/17 02:50:29;;;;;;;;;60.67;49.67;;;;;;;;5051517;28;8869;-82
2023/12/17 02:52:58;;;;;;;;;58.33;48.00;;;;;;;;5068510;28;8854;-82
2023/12/17 02:55:27;;;;;;;;;59.67;48.00;;;;;;;;5068863;28;8879;-82
2023/12/17 02:57:55;;;;;;;;;57.67;48.00;;;;;;;;5055865;28;8828;-81
2023/12/17 03:00:23;;;;;;;;;64.00;52.33;;;;;;;;5058815;28;8966;-81
2023/12/17 03:02:51;;;;;;;;;45.67;42.00;;;;;;;;5068341;28;8894;-81
2023/12/17 03:05:18;;;;;;;;;50.33;44.67;;;;;;;;5056845;28;8843;-81
2023/12/17 03:07:45;;;;;;;;;55.00;48.00;;;;;;;;5051327;28;8850;-84
2023/12/17 03:10:13;;;;;;;;;57.33;46.67;;;;;;;;5064909;28;9746;-81
2023/12/17 03:12:40;;;;;;;;;62.00;50.33;;;;;;;;5068546;28;8949;-82
2023/12/17 03:15:10;;;;;;;;;67.67;52.67;;;;;;;;5068468;28;8874;-81
2023/12/17 03:17:37;;;;;;;;;59.67;49.67;;;;;;;;5068909;28;9402;-84
2023/12/17 03:20:05;;;;;;;;;56.00;47.00;;;;;;;;5066768;28;8881;-84
2023/12/17 03:22:32;;;;;;;;;61.67;51.00;;;;;;;;5068278;28;8879;-84
2023/12/17 03:25:01;;;;;;;;;56.33;45.00;;;;;;;;5067243;28;8875;-82
2023/12/17 03:27:28;;;;;;;;;58.67;45.33;;;;;;;;5056857;28;8867;-81
2023/12/17 03:29:55;;;;;;;;;60.33;49.67;;;;;;;;5034598;28;8848;-82
2023/12/17 03:32:24;;;;;;;;;54.67;45.00;;;;;;;;5066841;28;9736;-82
2023/12/17 03:34:51;;;;;;;;;57.33;45.67;;;;;;;;5068405;28;8825;-83
2023/12/17 03:37:19;;;;;;;;;55.33;47.67;;;;;;;;5068780;28;8886;-83
2023/12/17 03:39:46;;;;;;;;;47.33;42.33;;;;;;;;5068523;28;8859;-80
2023/12/17 03:42:13;;;;;;;;;55.67;44.67;;;;;;;;5062882;28;8847;-82
2023/12/17 03:44:41;;;;;;;;;51.67;42.00;;;;;;;;5052098;28;8881;-82
2023/12/17 03:47:08;;;;;;;;;50.33;43.00;;;;;;;;5067725;28;8946;-81
2023/12/17 03:49:36;;;;;;;;;52.67;43.00;;;;;;;;5066820;28;11577;-83
2023/12/17 03:52:05;;;;;;;;;53.00;45.33;;;;;;;;5066263;28;8858;-83
2023/12/17 03:54:32;;;;;;;;;51.67;39.33;;;;;;;;5066131;28;11667;-82
2023/12/17 03:57:05;;;;;;;;;47.00;41.33;;;;;;;;5058079;28;8863;-82
2023/12/17 03:59:33;;;;;;;;;54.00;44.00;;;;;;;;5064028;28;8870;-81
2023/12/17 04:02:02;;;;;;;;;47.33;43.00;;;;;;;;5074838;28;8904;-80
2023/12/17 04:04:33;;;;;;;;;47.00;41.67;;;;;;;;5076206;28;8848;-81
2023/12/17 04:07:02;;;;;;;;;54.00;44.33;;;;;;;;5070633;28;9586;-82
2023/12/17 04:09:29;;;;;;;;;34.00;32.67;;;;;;;;5065737;28;8873;-82
2023/12/17 04:11:56;;;;;;;;;53.33;43.00;;;;;;;;5070390;28;9404;-82
2023/12/17 04:14:23;;;;;;;;;43.33;39.67;;;;;;;;5074095;28;11571;-83
2023/12/17 04:16:51;;;;;;;;;47.33;42.33;;;;;;;;5067738;28;11557;-82
2023/12/17 04:19:18;;;;;;;;;49.00;41.33;;;;;;;;5073501;28;11718;-82
2023/12/17 04:21:45;;;;;;;;;43.00;37.00;;;;;;;;5069503;28;11665;-83
2023/12/17 04:24:14;;;;;;;;;44.67;40.00;;;;;;;;5064963;28;11554;-83
2023/12/17 04:26:41;;;;;;;;;48.67;41.33;;;;;;;;5060921;28;11553;-83
2023/12/17 04:29:08;;;;;;;;;41.67;39.00;;;;;;;;5068201;28;8887;-84
2023/12/17 04:31:38;;;;;;;;;43.00;38.33;;;;;;;;5064027;28;11603;-83
2023/12/17 04:34:05;;;;;;;;;43.00;39.33;;;;;;;;5070363;28;11542;-83
2023/12/17 04:36:33;;;;;;;;;48.00;42.00;;;;;;;;5071153;28;8967;-84
2023/12/17 04:39:00;;;;;;;;;43.67;40.33;;;;;;;;5071473;28;11570;-84
2023/12/17 04:41:29;;;;;;;;;50.00;43.33;;;;;;;;5070660;28;8980;-84
2023/12/17 04:43:56;;;;;;;;;40.33;37.00;;;;;;;;5072089;28;8841;-84
2023/12/17 04:46:23;;;;;;;;;44.33;40.33;;;;;;;;5084171;28;11665;-77
2023/12/17 04:48:50;;;;;;;;;42.67;39.67;;;;;;;;5090631;28;9019;-77
2023/12/17 04:51:17;;;;;;;;;41.33;38.67;;;;;;;;5073475;28;8975;-83
2023/12/17 04:53:45;;;;;;;;;49.33;40.67;;;;;;;;5071601;28;8926;-83
2023/12/17 04:56:12;;;;;;;;;50.67;40.67;;;;;;;;5069343;28;8885;-83
2023/12/17 04:58:41;;;;;;;;;43.33;37.67;;;;;;;;5071641;28;9007;-82
2023/12/17 05:01:08;;;;;;;;;43.00;41.00;;;;;;;;5068618;28;8851;-83
2023/12/17 05:03:36;;;;;;;;;50.00;40.67;;;;;;;;5071302;28;8876;-85
2023/12/17 05:06:03;;;;;;;;;51.67;39.67;;;;;;;;5072141;28;8925;-84
2023/12/17 05:08:30;;;;;;;;;45.33;40.00;;;;;;;;5070980;28;12380;-83
2023/12/17 05:10:57;;;;;;;;;48.00;40.00;;;;;;;;5068155;28;8875;-85
2023/12/17 05:13:25;;;;;;;;;42.33;38.67;;;;;;;;5070824;28;8898;-84
2023/12/17 05:15:53;;;;;;;;;42.67;37.00;;;;;;;;5070318;28;11563;-82
2023/12/17 05:18:21;;;;;;;;;47.67;38.00;;;;;;;;5070900;28;8867;-83
2023/12/17 05:20:49;;;;;;;;;47.33;41.67;;;;;;;;5061343;28;8837;-84
2023/12/17 05:23:19;;;;;;;;;38.67;37.00;;;;;;;;5073148;28;8870;-82
2023/12/17 05:25:46;;;;;;;;;35.00;31.00;;;;;;;;5074548;28;11723;-80
2023/12/17 05:28:14;;;;;;;;;49.67;40.67;;;;;;;;5064835;28;11505;-81
2023/12/17 05:30:42;;;;;;;;;42.67;37.33;;;;;;;;5061526;28;8773;-82
2023/12/17 05:33:10;;;;;;;;;45.67;39.33;;;;;;;;5068035;28;11565;-84
2023/12/17 05:35:38;;;;;;;;;39.33;37.00;;;;;;;;5070487;28;8836;-80
2023/12/17 05:38:05;;;;;;;;;38.00;33.67;;;;;;;;5070796;28;11586;-82
2023/12/17 05:40:32;;;;;;;;;37.67;32.67;;;;;;;;5070100;28;11617;-82
2023/12/17 05:43:00;;;;;;;;;33.67;31.33;;;;;;;;5067740;28;11691;-82
2023/12/17 05:45:27;;;;;;;;;38.33;34.33;;;;;;;;5070243;28;11561;-82
2023/12/17 05:47:54;;;;;;;;;40.00;36.00;;;;;;;;5070054;28;11584;-81
2023/12/17 05:50:23;;;;;;;;;38.00;36.67;;;;;;;;5071236;28;11559;-83
2023/12/17 05:52:50;;;;;;;;;33.67;33.33;;;;;;;;5071813;28;11622;-82
2023/12/17 05:55:20;;;;;;;;;28.25;27.25;;;;;;;;5072643;28;11613;-82
2023/12/17 05:57:49;;;;;;;;;28.25;28.25;;;;;;;;5070917;28;11592;-82
2023/12/17 06:00:18;;;;;;;;;34.00;29.75;;;;;;;;5066491;28;11622;-82
2023/12/17 06:02:45;;;;;;;;;27.00;23.25;;;;;;;;5065929;28;11598;-81
2023/12/17 06:05:12;;;;;;;;;32.00;29.50;;;;;;;;5068899;28;11703;-81
2023/12/17 06:07:41;;;;;;;;;34.75;29.50;;;;;;;;5064603;28;11745;-83
2023/12/17 06:10:10;;;;;;;;;23.25;22.75;;;;;;;;5069579;28;11598;-82
2023/12/17 06:12:37;;;;;;;;;33.00;32.50;;;;;;;;5061221;28;11727;-84
2023/12/17 06:15:07;;;;;;;;;35.50;29.50;;;;;;;;5071849;28;11604;-83
2023/12/17 06:17:34;;;;;;;;;30.25;28.00;;;;;;;;5070698;28;11679;-86
2023/12/17 06:20:03;;;;;;;;;30.25;29.75;;;;;;;;5069320;28;11738;-82
2023/12/17 06:22:30;;;;;;;;;31.00;29.50;;;;;;;;5067284;28;11618;-86
2023/12/17 06:24:59;;;;;;;;;23.50;23.25;;;;;;;;5067056;28;11629;-84
2023/12/17 06:27:26;;;;;;;;;24.75;23.50;;;;;;;;5068612;28;11612;-81
2023/12/17 06:29:54;;;;;;;;;25.00;25.00;;;;;;;;5064925;28;11731;-85
2023/12/17 06:32:20;;;;;;;;;31.75;25.25;;;;;;;;5067805;28;11520;-84
2023/12/17 06:34:47;;;;;;;;;27.00;23.50;;;;;;;;5054509;28;11598;-84
2023/12/17 06:37:14;;;;;;;;;32.00;28.00;;;;;;;;5069155;28;11686;-85
2023/12/17 06:39:42;;;;;;;;;26.50;24.25;;;;;;;;5068920;28;11667;-81
2023/12/17 06:42:11;;;;;;;;;20.50;19.50;;;;;;;;5068032;28;11594;-85
2023/12/17 06:44:38;;;;;;;;;28.75;28.75;;;;;;;;5069097;28;11684;-82
2023/12/17 06:47:05;;;;;;;;;28.67;27.33;;;;;;;;5068943;28;11640;-82
2023/12/17 06:49:33;;;;;;;;;27.33;26.00;;;;;;;;5068197;28;11727;-82
2023/12/17 06:52:00;;;;;;;;;29.75;24.50;;;;;;;;5068066;28;11696;-81
2023/12/17 06:54:27;;;;;;;;;34.00;29.33;;;;;;;;5066341;28;11574;-81
2023/12/17 06:56:54;;;;;;;;;24.33;23.67;;;;;;;;5068026;28;11523;-81
2023/12/17 06:59:23;;;;;;;;;38.33;31.33;;;;;;;;5066163;28;11531;-81
2023/12/17 07:01:51;;;;;;;;;28.67;27.33;;;;;;;;5068112;28;11510;-82
2023/12/17 07:04:18;;;;;;;;;23.67;23.67;;;;;;;;5067807;28;11543;-79
2023/12/17 07:06:46;;;;;;;;;31.33;30.00;;;;;;;;5069144;28;11665;-79
2023/12/17 07:09:14;;;;;;;;;25.00;24.67;;;;;;;;5069611;28;11550;-80
2023/12/17 07:11:43;;;;;;;;;30.00;29.00;;;;;;;;5067205;28;11531;-88
2023/12/17 07:14:10;;;;;;;;;32.33;28.67;;;;;;;;5068687;28;11558;-82
2023/12/17 07:16:43;;;;;;;;;32.00;30.00;;;;;;;;5064990;28;11568;-76
2023/12/17 07:19:11;;;;;;;;;24.33;23.33;;;;;;;;5053134;28;11555;-79
2023/12/17 07:21:38;;;;;;;;;33.33;32.00;;;;;;;;5056107;28;8973;-78
2023/12/17 07:24:06;;;;;;;;;27.33;25.67;;;;;;;;5058757;28;11563;-79
2023/12/17 07:26:33;;;;;;;;;31.33;30.00;;;;;;;;5063126;28;11536;-82
2023/12/17 07:29:04;;;;;;;;;31.67;31.33;;;;;;;;5066499;28;11575;-81
2023/12/17 07:31:31;;;;;;;;;37.67;30.33;;;;;;;;5062691;28;11503;-82
2023/12/17 07:33:59;;;;;;;;;33.33;32.33;;;;;;;;5058026;28;8851;-78
2023/12/17 07:36:27;;;;;;;;;32.33;30.67;;;;;;;;5069986;28;12440;-84
2023/12/17 07:38:54;;;;;;;;;34.33;28.67;;;;;;;;5074376;28;11666;-80
2023/12/17 07:41:23;;;;;;;;;36.67;29.33;;;;;;;;5076356;28;11550;-79
2023/12/17 07:43:51;;;;;;;;;27.67;27.67;;;;;;;;5078097;28;11538;-78
2023/12/17 07:46:18;;;;;;;;;36.00;30.33;;;;;;;;5079318;28;11692;-75
2023/12/17 07:48:45;;;;;;;;;31.00;30.33;;;;;;;;5063674;28;8854;-81
2023/12/17 07:51:13;;;;;;;;;33.33;31.33;;;;;;;;5071772;28;8962;-74
2023/12/17 07:53:41;;;;;;;;;40.00;36.33;;;;;;;;5067650;28;8892;-81
2023/12/17 07:56:09;;;;;;;;;36.00;31.67;;;;;;;;5075765;28;8876;-75
2023/12/17 07:58:37;;;;;;;;;42.33;36.67;;;;;;;;5067946;28;8849;-78
2023/12/17 08:01:05;;;;;;;;;43.00;40.00;;;;;;;;5066594;28;8813;-76
2023/12/17 08:03:32;;;;;;;;;28.67;26.67;;;;;;;;5069168;28;8944;-78
2023/12/17 08:05:59;;;;;;;;;55.67;43.67;;;;;;;;5071088;28;8841;-79
2023/12/17 08:08:28;;;;;;;;;45.00;41.67;;;;;;;;5070767;28;8837;-81
2023/12/17 08:10:56;;;;;;;;;57.00;44.33;;;;;;;;5065730;28;8882;-80
2023/12/17 08:13:23;;;;;;;;;52.67;42.67;;;;;;;;5069868;28;8840;-84
2023/12/17 08:15:50;;;;;;;;;57.67;49.00;;;;;;;;5065404;28;8861;-82
2023/12/17 08:18:17;;;;;;;;;60.67;49.00;;;;;;;;5059018;28;8878;-80
2023/12/17 08:20:45;;;;;;;;;61.33;51.33;;;;;;;;5065519;28;8859;-82
2023/12/17 08:23:12;;;;;;;;;67.00;55.67;;;;;;;;5062002;28;8847;-80
2023/12/17 08:25:41;;;;;;;;;68.00;53.67;;;;;;;;5070941;28;8836;-81
2023/12/17 08:28:08;;;;;;;;;50.00;44.00;;;;;;;;5063235;28;8852;-79
2023/12/17 08:30:38;;;;;;;;;51.00;45.00;;;;;;;;5063657;28;8777;-80
2023/12/17 08:33:05;;;;;;;;;53.00;43.67;;;;;;;;5062999;28;8854;-76
2023/12/17 08:35:34;;;;;;;;;59.33;48.00;;;;;;;;5061519;28;8875;-83
2023/12/17 08:38:05;;;;;;;;;58.67;46.67;;;;;;;;5070563;28;8970;-84
2023/12/17 08:40:34;;;;;;;;;42.00;39.67;;;;;;;;5070610;28;8906;-80
2023/12/17 08:43:02;;;;;;;;;56.33;44.67;;;;;;;;5070442;28;11572;-79
2023/12/17 08:45:29;;;;;;;;;44.33;39.00;;;;;;;;5070260;28;8991;-79
2023/12/17 08:47:57;;;;;;;;;47.33;39.67;;;;;;;;5069611;28;11638;-78
2023/12/17 08:50:24;;;;;;;;;48.33;41.33;;;;;;;;5070028;28;8859;-76
2023/12/17 08:52:51;;;;;;;;;53.33;44.33;;;;;;;;5049234;28;11595;-79
2023/12/17 08:55:19;;;;;;;;;40.50;38.75;;;;;;;;5048828;28;11758;-76
2023/12/17 08:57:46;;;;;;;;;47.50;43.00;;;;;;;;5049529;28;11618;-80
2023/12/17 09:00:17;;;;;;;;;49.67;44.00;;;;;;;;5048476;28;11621;-77
2023/12/17 09:02:44;;;;;;;;;48.50;41.00;;;;;;;;5050968;28;11635;-84
2023/12/17 09:05:12;;;;;;;;;46.50;41.75;;;;;;;;5049066;28;11695;-79
2023/12/17 09:07:39;;;;;;;;;38.25;34.00;;;;;;;;5038914;28;11609;-75
2023/12/17 09:10:07;;;;;;;;;38.50;35.75;;;;;;;;5049983;28;11740;-73
2023/12/17 09:12:35;;;;;;;;;33.75;33.50;;;;;;;;5039377;28;11607;-78
2023/12/17 09:15:02;;;;;;;;;39.75;37.75;;;;;;;;5048249;28;11764;-76
2023/12/17 09:17:30;;;;;;;;;33.25;29.25;;;;;;;;5042468;28;11734;-80
2023/12/17 09:19:58;;;;;;;;;29.50;28.25;;;;;;;;5031936;28;11616;-78
2023/12/17 09:22:25;;;;;;;;;24.25;22.00;;;;;;;;5040937;28;11660;-80
2023/12/17 09:24:53;;;;;;;;;27.00;22.50;;;;;;;;5032411;28;11611;-77
2023/12/17 09:27:21;;;;;;;;;27.00;24.25;;;;;;;;5050062;28;11633;-77
2023/12/17 09:29:48;;;;;;;;;18.25;18.25;;;;;;;;5049834;28;11679;-79
2023/12/17 09:32:15;;;;;;;;;30.00;29.50;;;;;;;;5046714;28;11531;-80
2023/12/17 09:34:45;;;;;;;;;29.75;29.00;;;;;;;;5039547;28;11626;-80
2023/12/17 09:37:12;;;;;;;;;27.50;24.50;;;;;;;;5051384;28;11613;-77
2023/12/17 09:39:39;;;;;;;;;23.25;21.50;;;;;;;;5051923;28;11647;-80
2023/12/17 09:42:06;;;;;;;;;22.25;20.00;;;;;;;;5051675;28;11753;-76
2023/12/17 09:44:34;;;;;;;;;27.50;24.00;;;;;;;;5048648;28;11574;-77
2023/12/17 09:47:01;;;;;;;;;16.50;16.50;;;;;;;;5053973;28;11607;-81
2023/12/17 09:49:28;;;;;;;;;25.00;22.75;;;;;;;;5046959;28;11718;-73
2023/12/17 09:52:03;;;;;;;;;20.50;20.50;;;;;;;;5054261;28;11645;-80
2023/12/17 09:54:30;;;;;;;;;22.25;19.75;;;;;;;;5056868;28;11546;-74
2023/12/17 09:56:58;;;;;;;;;19.75;19.75;;;;;;;;5057085;28;11565;-75
2023/12/17 09:59:25;;;;;;;;;20.00;17.75;;;;;;;;5064860;28;11518;-79
2023/12/17 10:01:53;;;;;;;;;26.00;25.25;;;;;;;;5063136;28;11468;-77
2023/12/17 10:04:24;;;;;;;;;20.50;19.50;;;;;;;;5060863;28;11539;-75
2023/12/17 10:06:51;;;;;;;;;18.75;18.75;;;;;;;;5067499;28;11663;-77
2023/12/17 10:09:19;;;;;;;;;23.75;19.00;;;;;;;;5057298;28;11538;-80
2023/12/17 10:11:49;;;;;;;;;32.75;31.00;;;;;;;;5068661;28;11530;-74
2023/12/17 10:14:23;;;;;;;;;34.25;30.75;;;;;;;;5068148;28;11508;-75
2023/12/17 10:16:51;;;;;;;;;33.50;33.50;;;;;;;;5068736;28;11523;-77
2023/12/17 10:19:19;;;;;;;;;19.00;15.00;;;;;;;;5060429;28;11535;-77
2023/12/17 10:21:46;;;;;;;;;31.25;23.25;;;;;;;;5060672;28;11499;-76
2023/12/17 10:24:13;;;;;;;;;19.75;18.50;;;;;;;;5067969;28;11520;-77
2023/12/17 10:26:46;;;;;;;;;21.75;21.75;;;;;;;;5062658;28;11510;-75
2023/12/17 10:29:15;;;;;;;;;18.00;17.50;;;;;;;;5061185;28;11521;-78
2023/12/17 10:31:43;;;;;;;;;22.75;18.50;;;;;;;;5062275;28;11567;-75
2023/12/17 10:34:15;;;;;;;;;19.25;18.25;;;;;;;;5055481;28;11573;-77
2023/12/17 10:36:43;;;;;;;;;24.25;18.50;;;;;;;;5068842;28;11527;-83
2023/12/17 10:39:11;;;;;;;;;23.50;20.50;;;;;;;;5070674;28;12312;-80
2023/12/17 10:41:40;;;;;;;;;22.00;16.00;;;;;;;;5074389;28;11485;-75
2023/12/17 10:44:08;;;;;;;;;23.75;23.50;;;;;;;;5073699;28;11695;-72
2023/12/17 10:46:36;;;;;;;;;24.00;20.50;;;;;;;;5062392;28;11615;-79
2023/12/17 10:49:03;;;;;;;;;21.50;21.50;;;;;;;;5068680;28;11497;-77
2023/12/17 10:51:31;;;;;;;;;24.25;21.00;;;;;;;;5057151;28;11467;-79
2023/12/17 10:53:58;;;;;;;;;22.00;20.75;;;;;;;;5066226;28;11577;-78
2023/12/17 10:56:26;;;;;;;;;21.50;18.75;;;;;;;;5067531;28;11596;-80
2023/12/17 10:58:54;;;;;;;;;18.25;17.00;;;;;;;;5067032;28;11624;-77
2023/12/17 11:01:23;;;;;;;;;23.25;20.25;;;;;;;;5061855;28;11554;-80
2023/12/17 11:03:51;;;;;;;;;20.50;19.25;;;;;;;;5057416;28;11523;-81
2023/12/17 11:06:18;;;;;;;;;19.50;19.50;;;;;;;;5067905;28;12283;-77
2023/12/17 11:08:46;;;;;;;;;24.00;18.75;;;;;;;;5065883;28;11484;-80
2023/12/17 11:11:13;;;;;;;;;19.75;18.25;;;;;;;;5067556;28;11561;-82
2023/12/17 11:13:41;;;;;;;;;18.00;18.00;;;;;;;;5068463;28;11490;-84
2023/12/17 11:16:25;;;;;;;;;18.00;15.00;;;;;;;;5070991;28;11536;-77
2023/12/17 11:18:53;;;;;;;;;22.25;20.25;;;;;;;;5069299;28;11452;-83
2023/12/17 11:21:21;;;;;;;;;20.25;19.25;;;;;;;;5069872;28;11630;-79
2023/12/17 11:23:49;;;;;;;;;21.50;21.25;;;;;;;;5067928;28;11635;-80
2023/12/17 11:26:17;;;;;;;;;21.00;21.00;;;;;;;;5067966;28;11491;-80
2023/12/17 11:28:45;;;;;;;;;14.25;11.50;;;;;;;;5071834;28;11203;-79
2023/12/17 11:31:12;;;;;;;;;17.75;17.75;;;;;;;;5067339;28;11233;-78
2023/12/17 11:33:45;;;;;;;;;14.75;14.75;;;;;;;;5065487;28;11420;-79
2023/12/17 11:36:14;;;;;;;;;16.75;16.75;;;;;;;;5067569;28;11044;-78
2023/12/17 11:38:41;;;;;;;;;17.75;17.25;;;;;;;;5060353;28;11137;-75
2023/12/17 11:41:08;;;;;;;;;21.00;19.75;;;;;;;;5064108;28;10959;-72
2023/12/17 11:43:35;;;;;;;;;15.75;15.75;;;;;;;;5058521;28;11023;-77
2023/12/17 11:46:03;;;;;;;;;18.00;18.00;;;;;;;;5057960;28;10844;-77
2023/12/17 11:48:31;;;;;;;;;13.50;13.50;;;;;;;;5058512;28;10838;-78
2023/12/17 11:51:01;;;;;;;;;18.75;18.00;;;;;;;;5064462;28;10655;-80
2023/12/17 11:53:30;;;;;;;;;10.00;10.00;;;;;;;;5062526;28;10605;-76
2023/12/17 11:56:00;;;;;;;;;17.25;14.50;;;;;;;;5057432;28;10443;-72
2023/12/17 11:58:29;;;;;;;;;15.50;12.75;;;;;;;;5066966;28;10480;-79
2023/12/17 12:01:03;;;;;;;;;17.25;16.25;;;;;;;;5059513;28;11128;-82
2023/12/17 12:03:31;;;;;;;;;14.00;14.00;;;;;;;;5060460;28;10622;-80
2023/12/17 12:06:08;;;;;;;;;14.75;14.75;;;;;;;;5055274;28;10395;-74
2023/12/17 12:08:35;;;;;;;;;18.25;16.25;;;;;;;;5053224;28;11202;-76
2023/12/17 12:11:03;;;;;;;;;16.25;16.25;;;;;;;;5064528;28;10474;-76
2023/12/17 12:13:31;;;;;;;;;15.75;15.75;;;;;;;;5051147;28;10265;-77
2023/12/17 12:16:02;;;;;;;;;15.75;13.50;;;;;;;;5067097;28;10097;-74
2023/12/17 12:18:32;;;;;;;;;15.00;14.00;;;;;;;;5066984;28;10139;-77
2023/12/17 12:21:01;;;;;;;;;15.00;13.25;;;;;;;;5058678;28;9870;-78
2023/12/17 12:23:30;;;;;;;;;13.00;11.75;;;;;;;;5058904;28;9776;-76
2023/12/17 12:26:01;;;;;;;;;10.00;7.50;;;;;;;;5071231;28;9927;-79
2023/12/17 12:28:29;;;;;;;;;14.00;14.00;;;;;;;;5062368;28;10024;-84
2023/12/17 12:31:09;;;;;;;;;14.25;14.25;;;;;;;;5070938;28;10006;-75
2023/12/17 12:33:37;;;;;;;;;20.25;13.50;;;;;;;;5070730;28;10037;-81
2023/12/17 12:36:11;;;;;;;;;10.00;10.00;;;;;;;;5070265;28;10048;-83
2023/12/17 12:38:39;;;;;;;;;14.25;12.50;;;;;;;;5071481;28;10049;-85
2023/12/17 12:41:12;;;;;;;;;12.75;11.75;;;;;;;;5071584;28;10046;-74
2023/12/17 12:43:40;;;;;;;;;15.75;14.25;;;;;;;;5070634;28;10279;-82
2023/12/17 12:46:08;;;;;;;;;13.00;13.00;;;;;;;;5068705;28;10201;-82
2023/12/17 12:48:38;;;;;;;;;12.00;11.00;;;;;;;;5077106;28;10113;-81
2023/12/17 12:51:07;;;;;;;;;14.75;13.50;;;;;;;;5070817;28;10095;-77
2023/12/17 12:53:34;;;;;;;;;12.25;10.75;;;;;;;;5071624;28;10051;-76
2023/12/17 12:56:01;;;;;;;;;12.75;12.25;;;;;;;;5068983;28;9866;-75
2023/12/17 12:58:31;;;;;;;;;13.75;12.00;;;;;;;;5070565;28;9757;-77
2023/12/17 13:00:58;;;;;;;;;12.25;12.25;;;;;;;;5069032;28;9465;-78
2023/12/17 13:03:26;;;;;;;;;8.25;8.25;;;;;;;;5071077;28;9631;-80
2023/12/17 13:05:53;;;;;;;;;7.00;7.00;;;;;;;;5071409;28;9555;-76
2023/12/17 13:08:21;;;;;;;;;11.00;10.33;;;;;;;;5070046;28;9367;-76
2023/12/17 13:10:49;;;;;;;;;9.00;9.00;;;;;;;;5072046;28;9386;-75
2023/12/17 13:13:16;;;;;;;;;15.00;13.33;;;;;;;;5072386;28;9252;-77
2023/12/17 13:15:43;;;;;;;;;11.00;11.00;;;;;;;;5075501;28;9444;-74
2023/12/17 13:18:12;;;;;;;;;16.67;10.00;;;;;;;;5074519;28;9421;-79
2023/12/17 13:20:39;;;;;;;;;13.33;13.33;;;;;;;;5076896;28;9316;-77
2023/12/17 13:23:06;;;;;;;;;11.33;11.33;;;;;;;;5066209;28;9182;-74
2023/12/17 13:25:35;;;;;;;;;10.00;10.00;;;;;;;;5078259;28;9337;-79
2023/12/17 13:28:08;;;;;;;;;12.33;11.67;;;;;;;;5079290;28;9998;-79
2023/12/17 13:30:35;;;;;;;;;11.67;8.67;;;;;;;;5068239;28;9156;-82
2023/12/17 13:33:13;;;;;;;;;9.00;9.00;;;;;;;;5069573;28;9181;-79
2023/12/17 13:35:43;;;;;;;;;14.33;13.00;;;;;;;;5037627;28;9259;-80
2023/12/17 13:38:13;;;;;;;;;13.67;11.33;;;;;;;;5071932;28;9358;-82
2023/12/17 13:40:42;;;;;;;;;13.67;10.33;;;;;;;;5070519;28;9412;-75
2023/12/17 13:43:11;;;;;;;;;11.67;11.67;;;;;;;;5069315;28;9259;-79
2023/12/17 13:45:39;;;;;;;;;10.67;10.67;;;;;;;;5067937;28;9319;-76
2023/12/17 13:48:12;;;;;;;;;10.00;10.00;;;;;;;;5068330;28;9250;-80
2023/12/17 13:50:41;;;;;;;;;11.00;11.00;;;;;;;;5068490;28;9252;-76
2023/12/17 13:53:08;;;;;;;;;16.33;14.33;;;;;;;;5066648;28;9408;-81
2023/12/17 13:55:36;;;;;;;;;15.67;11.67;;;;;;;;5069055;28;9479;-79
2023/12/17 13:58:05;;;;;;;;;13.50;11.50;;;;;;;;5058783;28;9389;-77
2023/12/17 14:00:34;;;;;;;;;17.50;15.50;;;;;;;;5068303;28;9415;-77
2023/12/17 14:03:03;;;;;;;;;11.00;11.00;;;;;;;;5069661;28;9402;-77
2023/12/17 14:05:30;;;;;;;;;13.67;13.67;;;;;;;;5066173;28;9472;-77
2023/12/17 14:07:58;;;;;;;;;14.00;11.00;;;;;;;;5069348;28;9457;-75
2023/12/17 14:10:25;;;;;;;;;11.00;11.00;;;;;;;;5068316;28;9410;-78
2023/12/17 14:12:53;;;;;;;;;12.33;12.33;;;;;;;;5069268;28;9343;-75
2023/12/17 14:15:23;;;;;;;;;10.33;10.00;;;;;;;;5067991;28;9313;-74
2023/12/17 14:17:51;;;;;;;;;14.00;11.33;;;;;;;;5066989;28;9313;-75
2023/12/17 14:20:18;;;;;;;;;11.67;11.67;;;;;;;;5068866;28;9352;-76
2023/12/17 14:22:48;;;;;;;;;13.33;13.33;;;;;;;;5070677;28;9408;-81
2023/12/17 14:25:31;;;;;;;;;18.00;16.67;;;;;;;;5064366;28;9393;-82
2023/12/17 14:28:12;;;;;;;;;14.25;13.75;;;;;;;;5068192;28;9398;-81